createdAt,value
2022-11-24T00:00:25.419Z,91.49
2022-11-24T00:02:56.481Z,91.46
2022-11-24T00:05:27.789Z,91.47
2022-11-24T00:07:58.374Z,91.48
2022-11-24T00:10:28.961Z,91.46
2022-11-24T00:12:59.536Z,91.51
2022-11-24T00:15:30.104Z,91.51
2022-11-24T00:18:02.107Z,91.50
2022-11-24T00:20:33.739Z,91.53
2022-11-24T00:23:04.361Z,91.54
2022-11-24T00:25:37.145Z,91.56
2022-11-24T00:28:09.383Z,91.54
2022-11-24T00:30:39.956Z,91.52
2022-11-24T00:33:10.755Z,91.50
2022-11-24T00:35:41.727Z,91.41
2022-11-24T00:38:12.255Z,91.37
2022-11-24T00:40:44.329Z,91.35
2022-11-24T00:43:14.975Z,91.40
2022-11-24T00:45:45.678Z,91.45
2022-11-24T00:48:16.941Z,91.42
2022-11-24T00:51:00.772Z,91.45
2022-11-24T00:53:33.506Z,91.45
2022-11-24T00:56:04.351Z,91.48
2022-11-24T00:58:35.329Z,91.46
2022-11-24T01:01:17.633Z,91.48
2022-11-24T01:03:48.754Z,91.48
2022-11-24T01:06:21.481Z,91.44
2022-11-24T01:08:52.851Z,91.46
2022-11-24T01:11:29.564Z,91.44
2022-11-24T01:14:00.706Z,91.44
2022-11-24T01:16:34.687Z,91.39
2022-11-24T01:19:05.185Z,91.23
2022-11-24T01:21:35.678Z,91.24
2022-11-24T01:24:06.859Z,91.23
2022-11-24T01:26:37.494Z,91.24
2022-11-24T01:29:08.182Z,91.23
2022-11-24T01:31:38.991Z,91.27
2022-11-24T01:34:09.728Z,91.34
2022-11-24T01:36:40.678Z,91.35
2022-11-24T01:39:11.223Z,91.39
2022-11-24T01:41:41.898Z,91.42
2022-11-24T01:44:23.975Z,91.48
2022-11-24T01:47:00.661Z,91.54
2022-11-24T01:49:52.082Z,91.54
2022-11-24T01:52:39.338Z,91.50
2022-11-24T01:55:13.062Z,91.47
2022-11-24T01:57:46.609Z,91.44
2022-11-24T02:00:18.880Z,91.43
2022-11-24T02:02:49.422Z,91.33
2022-11-24T02:05:38.756Z,91.27
2022-11-24T02:08:05.018Z,91.19
2022-11-24T02:10:35.954Z,91.12
2022-11-24T02:13:07.521Z,91.14
2022-11-24T02:15:38.119Z,91.16
2022-11-24T02:18:10.379Z,91.17
2022-11-24T02:20:41.012Z,91.20
2022-11-24T02:23:26.643Z,91.18
2022-11-24T02:26:18.963Z,91.10
2022-11-24T02:28:50.954Z,91.16
2022-11-24T02:31:22.343Z,91.27
2022-11-24T02:33:54.793Z,91.41
2022-11-24T02:36:26.489Z,91.50
2022-11-24T02:38:57.400Z,91.62
2022-11-24T02:41:29.861Z,91.71
2022-11-24T02:44:02.413Z,91.81
2022-11-24T02:46:32.957Z,91.89
2022-11-24T02:49:03.417Z,91.92
2022-11-24T02:51:34.634Z,91.96
2022-11-24T02:54:05.203Z,91.99
2022-11-24T02:56:35.701Z,91.99
2022-11-24T02:59:06.329Z,92.00
2022-11-24T03:01:36.906Z,92.03
2022-11-24T03:04:07.694Z,92.02
2022-11-24T03:06:38.406Z,92.01
2022-11-24T03:09:08.996Z,92.02
2022-11-24T03:11:40.174Z,92.02
2022-11-24T03:14:12.516Z,91.99
2022-11-24T03:16:44.122Z,91.98
2022-11-24T03:19:14.896Z,91.92
2022-11-24T03:21:45.741Z,91.87
2022-11-24T03:24:16.343Z,91.84
2022-11-24T03:26:46.902Z,91.82
2022-11-24T03:29:17.897Z,91.79
2022-11-24T03:31:48.368Z,91.79
2022-11-24T03:34:18.961Z,91.75
2022-11-24T03:36:49.627Z,91.74
2022-11-24T03:39:20.136Z,91.71
2022-11-24T03:41:54.475Z,91.74
2022-11-24T03:44:26.195Z,91.78
2022-11-24T03:46:56.661Z,91.80
2022-11-24T03:49:27.440Z,91.82
2022-11-24T03:51:58.078Z,91.85
2022-11-24T03:54:29.965Z,91.82
2022-11-24T03:57:00.667Z,91.83
2022-11-24T03:59:31.088Z,91.79
2022-11-24T04:02:01.627Z,91.78
2022-11-24T04:04:32.808Z,91.78
2022-11-24T04:07:04.814Z,91.81
2022-11-24T04:09:35.488Z,91.79
2022-11-24T04:12:24.378Z,91.75
2022-11-24T04:14:55.056Z,91.79
2022-11-24T04:17:25.620Z,91.81
2022-11-24T04:19:56.252Z,91.83
2022-11-24T04:22:26.985Z,91.83
2022-11-24T04:24:57.573Z,91.81
2022-11-24T04:27:28.044Z,91.83
2022-11-24T04:29:58.563Z,91.80
2022-11-24T04:32:29.223Z,91.78
2022-11-24T04:34:59.864Z,91.74
2022-11-24T04:37:30.491Z,91.73
2022-11-24T04:40:01.132Z,91.72
2022-11-24T04:42:31.658Z,91.66
2022-11-24T04:45:02.558Z,91.64
2022-11-24T04:47:33.500Z,91.62
2022-11-24T04:50:04.954Z,91.56
2022-11-24T04:52:35.438Z,91.55
2022-11-24T04:55:06.319Z,91.55
2022-11-24T04:57:36.774Z,91.48
2022-11-24T05:00:09.336Z,91.45
2022-11-24T05:02:40.126Z,91.38
2022-11-24T05:05:12.142Z,91.29
2022-11-24T05:07:42.901Z,91.19
2022-11-24T05:10:31.335Z,91.08
2022-11-24T05:13:03.538Z,91.13
2022-11-24T05:15:34.407Z,91.24
2022-11-24T05:18:11.179Z,91.37
2022-11-24T05:20:45.159Z,91.42
2022-11-24T05:23:16.043Z,91.45
2022-11-24T05:25:48.097Z,91.47
2022-11-24T05:28:19.626Z,91.41
2022-11-24T05:30:52.301Z,91.36
2022-11-24T05:33:23.264Z,91.28
2022-11-24T05:35:54.346Z,91.26
2022-11-24T05:38:26.520Z,91.37
2022-11-24T05:41:05.173Z,91.36
2022-11-24T05:43:36.199Z,91.27
2022-11-24T05:46:06.841Z,91.30
2022-11-24T05:48:38.525Z,91.34
2022-11-24T05:51:09.517Z,91.36
2022-11-24T05:53:40.265Z,91.41
2022-11-24T05:56:10.674Z,91.39
2022-11-24T05:58:41.232Z,91.36
2022-11-24T06:01:11.773Z,91.39
2022-11-24T06:03:42.445Z,91.34
2022-11-24T06:06:16.843Z,91.34
2022-11-24T06:08:49.164Z,91.36
2022-11-24T06:11:19.654Z,91.26
2022-11-24T06:13:50.445Z,91.23
2022-11-24T06:16:21.133Z,91.11
2022-11-24T06:18:51.873Z,91.06
2022-11-24T06:21:22.663Z,90.98
2022-11-24T06:23:54.707Z,91.08
2022-11-24T06:26:25.567Z,91.09
2022-11-24T06:28:57.579Z,91.07
2022-11-24T06:31:29.534Z,91.04
2022-11-24T06:34:02.519Z,90.94
2022-11-24T06:36:33.997Z,90.71
2022-11-24T06:39:05.837Z,90.67
2022-11-24T06:41:37.135Z,90.69
2022-11-24T06:44:08.670Z,90.56
2022-11-24T06:46:39.175Z,90.40
2022-11-24T06:49:10.931Z,90.28
2022-11-24T06:51:43.128Z,90.25
2022-11-24T06:54:21.426Z,90.34
2022-11-24T06:56:54.982Z,90.44
2022-11-24T06:59:26.631Z,90.51
2022-11-24T07:01:57.765Z,90.60
2022-11-24T07:04:28.397Z,90.61
2022-11-24T07:07:00.029Z,90.60
2022-11-24T07:09:30.458Z,90.45
2022-11-24T07:12:02.358Z,90.39
2022-11-24T07:14:33.734Z,90.32
2022-11-24T07:17:05.267Z,90.24
2022-11-24T07:19:35.808Z,90.09
2022-11-24T07:22:06.301Z,89.82
2022-11-24T07:24:37.406Z,89.81
2022-11-24T07:27:08.003Z,89.78
2022-11-24T07:29:38.547Z,89.66
2022-11-24T07:32:09.295Z,89.46
2022-11-24T07:34:39.912Z,89.56
2022-11-24T07:37:10.375Z,89.64
2022-11-24T07:39:41.069Z,89.66
2022-11-24T07:42:11.597Z,89.45
2022-11-24T07:44:42.216Z,89.36
2022-11-24T07:47:12.765Z,89.50
2022-11-24T07:49:43.450Z,89.38
2022-11-24T07:52:13.959Z,89.32
2022-11-24T07:54:44.533Z,89.18
2022-11-24T07:57:14.935Z,89.09
2022-11-24T07:59:45.411Z,89.11
2022-11-24T08:02:15.864Z,89.25
2022-11-24T08:04:46.601Z,89.24
2022-11-24T08:07:17.476Z,89.23
2022-11-24T08:09:49.814Z,89.14
2022-11-24T08:12:23.926Z,89.19
2022-11-24T08:14:57.247Z,89.18
2022-11-24T08:17:29.831Z,89.08
2022-11-24T08:20:00.383Z,89.24
2022-11-24T08:22:30.820Z,89.53
2022-11-24T08:25:01.184Z,89.62
2022-11-24T08:27:31.716Z,89.67
2022-11-24T08:30:02.194Z,89.60
2022-11-24T08:32:32.971Z,89.57
2022-11-24T08:35:18.406Z,89.44
2022-11-24T08:37:35.587Z,89.28
2022-11-24T08:40:08.421Z,89.27
2022-11-24T08:42:39.941Z,89.25
2022-11-24T08:45:20.832Z,88.91
2022-11-24T08:47:44.997Z,88.74
2022-11-24T08:50:15.495Z,88.65
2022-11-24T08:52:46.087Z,88.58
2022-11-24T08:55:19.587Z,88.50
2022-11-24T08:57:49.998Z,88.57
2022-11-24T09:00:23.748Z,88.47
2022-11-24T09:02:58.741Z,88.54
2022-11-24T09:05:51.310Z,88.41
2022-11-24T09:08:01.516Z,88.35
2022-11-24T09:10:33.147Z,88.10
2022-11-24T09:13:03.896Z,87.92
2022-11-24T09:15:37.812Z,87.72
2022-11-24T09:18:08.636Z,87.10
2022-11-24T09:20:41.091Z,86.88
2022-11-24T09:23:11.605Z,86.88
2022-11-24T09:25:42.291Z,86.62
2022-11-24T09:28:15.871Z,87.15
2022-11-24T09:30:46.411Z,87.36
2022-11-24T09:33:18.766Z,87.57
2022-11-24T09:35:52.594Z,87.48
2022-11-24T09:38:24.159Z,87.27
2022-11-24T09:40:58.084Z,87.29
2022-11-24T09:43:43.511Z,87.19
2022-11-24T09:46:23.284Z,87.00
2022-11-24T09:48:56.875Z,86.77
2022-11-24T09:51:30.495Z,86.02
2022-11-24T09:54:16.389Z,86.06
2022-11-24T09:56:51.296Z,86.04
2022-11-24T09:59:24.059Z,86.06
2022-11-24T10:01:56.616Z,85.51
2022-11-24T10:04:43.858Z,85.44
2022-11-24T10:07:18.723Z,86.23
2022-11-24T10:10:13.193Z,85.96
2022-11-24T10:13:04.072Z,86.20
2022-11-24T10:15:43.959Z,86.41
2022-11-24T10:18:33.323Z,86.57
2022-11-24T10:21:06.832Z,86.61
2022-11-24T10:24:12.412Z,86.23
2022-11-24T10:26:46.907Z,85.73
2022-11-24T10:29:23.031Z,85.22
2022-11-24T10:31:57.826Z,84.87
2022-11-24T10:34:31.386Z,84.83
2022-11-24T10:37:10.858Z,84.73
2022-11-24T10:40:04.176Z,84.49
2022-11-24T10:42:40.122Z,84.26
2022-11-24T10:45:16.512Z,84.08
2022-11-24T10:47:55.012Z,83.84
2022-11-24T10:50:31.325Z,83.61
2022-11-24T10:53:28.762Z,83.50
2022-11-24T10:56:02.754Z,82.88
2022-11-24T10:58:38.232Z,83.86
2022-11-24T11:01:17.922Z,84.24
2022-11-24T11:03:54.724Z,84.18
2022-11-24T11:06:28.051Z,83.24
2022-11-24T11:09:18.122Z,82.99
2022-11-24T11:11:49.744Z,83.24
2022-11-24T11:14:38.186Z,83.03
2022-11-24T11:17:35.131Z,82.82
2022-11-24T11:20:09.022Z,83.28
2022-11-24T11:22:40.179Z,83.18
2022-11-24T11:25:16.913Z,82.81
2022-11-24T11:27:48.478Z,82.31
2022-11-24T11:35:37.214Z,81.13
2022-11-24T11:38:09.037Z,81.28
2022-11-24T11:40:42.746Z,80.95
2022-11-24T11:43:32.969Z,81.00
2022-11-24T11:46:12.567Z,81.76
2022-11-24T11:48:48.693Z,82.77
2022-11-24T11:51:51.778Z,83.08
2022-11-24T11:54:49.814Z,83.30
2022-11-24T11:57:34.447Z,83.22
2022-11-24T12:00:07.894Z,82.78
2022-11-24T12:02:57.570Z,83.53
2022-11-24T12:06:00.073Z,83.30
2022-11-24T12:09:18.609Z,82.67
2022-11-24T12:11:27.200Z,82.90
2022-11-24T12:14:29.427Z,82.91
2022-11-24T12:17:02.163Z,82.69
2022-11-24T12:19:52.047Z,82.77
2022-11-24T12:22:34.707Z,82.21
2022-11-24T12:25:17.477Z,82.31
2022-11-24T12:28:10.446Z,82.25
2022-11-24T12:30:46.715Z,82.46
2022-11-24T12:33:50.585Z,82.30
2022-11-24T12:36:36.915Z,81.70
2022-11-24T12:39:19.126Z,81.17
2022-11-24T12:42:10.958Z,80.87
2022-11-24T12:44:53.619Z,80.72
2022-11-24T12:47:43.628Z,80.94
2022-11-24T12:50:23.001Z,81.23
2022-11-24T12:53:00.981Z,80.89
2022-11-24T12:55:34.828Z,80.50
2022-11-24T12:58:32.503Z,80.37
2022-11-24T13:01:14.638Z,81.32
2022-11-24T13:04:00.145Z,82.11
2022-11-24T13:06:36.856Z,82.23
2022-11-24T13:09:12.448Z,81.99
2022-11-24T13:12:03.302Z,81.91
2022-11-24T13:14:40.116Z,82.31
2022-11-24T13:17:53.981Z,82.61
2022-11-24T13:20:23.382Z,82.73
2022-11-24T13:22:59.243Z,82.70
2022-11-24T13:25:33.837Z,83.05
2022-11-24T13:28:07.423Z,83.45
2022-11-24T13:30:49.789Z,82.62
2022-11-24T13:33:32.547Z,82.93
2022-11-24T13:36:12.871Z,83.33
2022-11-24T13:38:47.021Z,83.58
2022-11-24T13:41:39.221Z,83.96
2022-11-24T13:44:25.285Z,83.72
2022-11-24T13:47:05.592Z,83.73
2022-11-24T13:49:46.795Z,83.35
2022-11-24T13:52:42.974Z,82.54
2022-11-24T13:55:16.731Z,82.24
2022-11-24T13:57:54.190Z,82.04
2022-11-24T14:00:30.898Z,82.18
2022-11-24T14:03:08.229Z,82.15
2022-11-24T14:05:42.627Z,82.19
2022-11-24T14:08:16.263Z,81.88
2022-11-24T14:10:47.450Z,81.59
2022-11-24T14:13:35.278Z,81.71
2022-11-24T14:16:12.316Z,81.41
2022-11-24T14:18:49.723Z,81.76
2022-11-24T14:21:29.293Z,81.89
2022-11-24T14:24:11.426Z,81.74
2022-11-24T14:26:42.699Z,81.42
2022-11-24T14:29:15.720Z,82.57
2022-11-24T14:31:55.993Z,83.10
2022-11-24T14:34:30.367Z,83.66
2022-11-24T14:37:03.229Z,83.89
2022-11-24T14:39:38.141Z,83.76
2022-11-24T14:42:20.812Z,84.02
2022-11-24T14:44:58.541Z,84.43
2022-11-24T14:47:40.971Z,84.66
2022-11-24T14:50:19.293Z,84.57
2022-11-24T14:52:57.568Z,84.99
2022-11-24T14:55:32.938Z,84.81
2022-11-24T14:58:05.405Z,84.75
2022-11-24T15:00:36.062Z,85.06
2022-11-24T15:03:09.743Z,84.86
2022-11-24T15:06:00.562Z,85.20
2022-11-24T15:08:37.023Z,85.27
2022-11-24T15:11:08.501Z,85.26
2022-11-24T15:13:40.402Z,85.49
2022-11-24T15:16:21.499Z,85.22
2022-11-24T15:19:01.158Z,85.12
2022-11-24T15:21:38.611Z,85.17
2022-11-24T15:24:18.023Z,85.20
2022-11-24T15:26:48.819Z,84.50
2022-11-24T15:29:19.753Z,84.60
2022-11-24T15:31:52.775Z,84.63
2022-11-24T15:34:22.447Z,85.14
2022-11-24T15:36:53.099Z,85.29
2022-11-24T15:39:23.711Z,85.68
2022-11-24T15:41:54.374Z,85.38
2022-11-24T15:44:25.301Z,85.68
2022-11-24T15:46:57.101Z,85.86
2022-11-24T15:49:27.805Z,85.38
2022-11-24T15:51:58.557Z,85.47
2022-11-24T15:54:29.684Z,85.56
2022-11-24T15:57:01.023Z,85.43
2022-11-24T15:59:31.810Z,85.47
2022-11-24T16:02:02.258Z,85.17
2022-11-24T16:04:35.076Z,85.20
2022-11-24T16:07:07.446Z,85.43
2022-11-24T16:09:38.477Z,85.52
2022-11-24T16:12:10.841Z,85.56
2022-11-24T16:14:43.665Z,85.09
2022-11-24T16:17:15.632Z,85.16
2022-11-24T16:19:46.151Z,85.23
2022-11-24T16:22:16.780Z,85.09
2022-11-24T16:24:47.172Z,85.39
2022-11-24T16:27:17.912Z,85.69
2022-11-24T16:29:48.308Z,85.85
2022-11-24T16:32:19.122Z,86.11
2022-11-24T16:34:49.795Z,86.12
2022-11-24T16:37:22.316Z,86.29
2022-11-24T16:39:53.503Z,86.41
2022-11-24T16:42:24.435Z,86.73
2022-11-24T16:44:57.964Z,86.84
2022-11-24T16:47:28.516Z,86.74
2022-11-24T16:50:00.095Z,86.95
2022-11-24T16:52:31.186Z,87.11
2022-11-24T16:55:03.914Z,87.33
2022-11-24T16:57:36.030Z,86.99
2022-11-24T17:00:08.235Z,87.01
2022-11-24T17:02:39.643Z,86.77
2022-11-24T17:05:10.688Z,86.76
2022-11-24T17:07:42.884Z,86.87
2022-11-24T17:10:13.409Z,87.08
2022-11-24T17:12:44.793Z,87.11
2022-11-24T17:15:32.570Z,87.23
2022-11-24T17:18:16.326Z,87.27
2022-11-24T17:20:21.428Z,87.20
2022-11-24T17:22:58.542Z,87.15
2022-11-24T17:25:29.977Z,87.22
2022-11-24T17:28:00.559Z,87.25
2022-11-24T17:30:31.366Z,86.80
2022-11-24T17:33:03.822Z,87.13
2022-11-24T17:35:35.655Z,87.09
2022-11-24T17:38:07.781Z,87.16
2022-11-24T17:40:38.375Z,87.33
2022-11-24T17:43:09.904Z,87.90
2022-11-24T17:45:42.023Z,88.17
2022-11-24T17:48:13.794Z,88.25
2022-11-24T17:50:46.527Z,88.15
2022-11-24T17:53:18.579Z,88.05
2022-11-24T17:55:50.392Z,88.19
2022-11-24T17:58:20.929Z,88.10
2022-11-24T18:00:52.926Z,87.89
2022-11-24T18:03:26.669Z,88.12
2022-11-24T18:05:57.633Z,87.95
2022-11-24T18:08:28.472Z,87.91
2022-11-24T18:11:04.230Z,88.05
2022-11-24T18:13:55.632Z,87.89
2022-11-24T18:16:10.349Z,87.72
2022-11-24T18:18:45.977Z,88.01
2022-11-24T18:21:18.280Z,88.17
2022-11-24T18:23:49.943Z,88.18
2022-11-24T18:26:22.101Z,88.27
2022-11-24T18:28:53.272Z,88.53
2022-11-24T18:31:24.666Z,88.55
2022-11-24T18:33:55.418Z,88.28
2022-11-24T18:36:30.217Z,88.44
2022-11-24T18:39:04.670Z,88.51
2022-11-24T18:41:38.739Z,88.65
2022-11-24T18:44:10.760Z,88.70
2022-11-24T18:46:45.600Z,88.85
2022-11-24T18:49:17.707Z,89.04
2022-11-24T18:51:48.306Z,89.12
2022-11-24T18:54:18.750Z,88.88
2022-11-24T18:56:49.428Z,88.64
2022-11-24T18:59:20.399Z,88.53
2022-11-24T19:01:52.189Z,88.53
2022-11-24T19:04:24.206Z,88.30
2022-11-24T19:06:57.724Z,88.27
2022-11-24T19:09:28.245Z,88.55
2022-11-24T19:12:00.056Z,88.61
2022-11-24T19:14:31.448Z,88.59
2022-11-24T19:17:04.296Z,88.50
2022-11-24T19:19:35.950Z,88.37
2022-11-24T19:22:08.100Z,88.61
2022-11-24T19:24:39.101Z,88.78
2022-11-24T19:27:11.795Z,88.64
2022-11-24T19:29:44.006Z,88.91
2022-11-24T19:32:14.732Z,88.91
2022-11-24T19:34:45.372Z,89.14
2022-11-24T19:37:16.179Z,89.42
2022-11-24T19:39:49.321Z,89.55
2022-11-24T19:42:37.198Z,89.53
2022-11-24T19:45:08.582Z,89.57
2022-11-24T19:47:40.797Z,89.68
2022-11-24T19:50:13.255Z,89.82
2022-11-24T19:52:43.772Z,89.91
2022-11-24T19:55:14.324Z,89.83
2022-11-24T19:57:45.367Z,89.86
2022-11-24T20:00:17.694Z,89.87
2022-11-24T20:02:52.378Z,89.94
2022-11-24T20:05:23.709Z,90.01
2022-11-24T20:07:54.777Z,90.15
2022-11-24T20:10:25.342Z,90.21
2022-11-24T20:12:55.768Z,90.35
2022-11-24T20:15:26.354Z,90.38
2022-11-24T20:18:00.090Z,90.44
2022-11-24T20:20:30.634Z,90.36
2022-11-24T20:23:02.729Z,90.34
2022-11-24T20:25:36.309Z,90.24
2022-11-24T20:28:07.273Z,90.22
2022-11-24T20:30:39.249Z,90.27
2022-11-24T20:33:10.019Z,90.27
2022-11-24T20:35:41.563Z,90.31
2022-11-24T20:38:13.249Z,90.46
2022-11-24T20:40:43.891Z,90.58
2022-11-24T20:43:16.587Z,90.60
2022-11-24T20:45:48.644Z,90.60
2022-11-24T20:48:19.123Z,90.59
2022-11-24T20:50:51.552Z,90.58
2022-11-24T20:53:22.571Z,90.50
2022-11-24T20:55:53.085Z,90.46
2022-11-24T20:58:23.603Z,90.54
2022-11-24T21:00:54.073Z,90.51
2022-11-24T21:03:26.412Z,90.60
2022-11-24T21:05:58.709Z,90.72
2022-11-24T21:08:32.808Z,90.81
2022-11-24T21:11:05.136Z,90.69
2022-11-24T21:13:38.327Z,90.67
2022-11-24T21:16:23.705Z,90.61
2022-11-24T21:18:57.543Z,90.56
2022-11-24T21:21:36.699Z,90.46
2022-11-24T21:24:16.252Z,90.55
2022-11-24T21:26:47.924Z,90.51
2022-11-24T21:29:23.854Z,90.55
2022-11-24T21:31:55.359Z,90.59
2022-11-24T21:34:26.083Z,90.64
2022-11-24T21:36:57.309Z,90.59
2022-11-24T21:39:28.358Z,90.60
2022-11-24T21:41:58.934Z,90.65
2022-11-24T21:44:31.421Z,90.70
2022-11-24T21:47:01.806Z,90.71
2022-11-24T21:49:32.289Z,90.68
2022-11-24T21:52:02.894Z,90.65
2022-11-24T21:54:34.928Z,90.59
2022-11-24T21:57:05.538Z,90.67
2022-11-24T21:59:37.121Z,90.74
2022-11-24T22:02:12.997Z,90.78
2022-11-24T22:04:43.421Z,90.72
2022-11-24T22:07:17.177Z,90.65
2022-11-24T22:09:49.647Z,90.61
2022-11-24T22:12:23.246Z,90.44
2022-11-24T22:14:54.139Z,90.38
2022-11-24T22:17:24.767Z,90.45
2022-11-24T22:19:58.372Z,90.42
2022-11-24T22:22:28.805Z,90.43
2022-11-24T22:25:02.369Z,90.41
2022-11-24T22:27:33.185Z,90.50
2022-11-24T22:30:06.078Z,90.54
2022-11-24T22:32:36.534Z,90.59
2022-11-24T22:35:08.271Z,90.52
2022-11-24T22:37:40.370Z,90.53
2022-11-24T22:40:12.286Z,90.62
2022-11-24T22:42:43.009Z,90.69
2022-11-24T22:45:14.679Z,90.75
2022-11-24T22:47:45.204Z,90.77
2022-11-24T22:50:15.962Z,90.82
2022-11-24T22:52:46.661Z,90.84
2022-11-24T22:55:17.371Z,90.86
2022-11-24T22:57:48.698Z,90.87
2022-11-24T23:00:19.993Z,90.85
2022-11-24T23:02:51.100Z,90.76
2022-11-24T23:05:22.505Z,90.65
2022-11-24T23:07:53.150Z,90.65
2022-11-24T23:10:23.952Z,90.63
2022-11-24T23:12:56.010Z,90.70
2022-11-24T23:15:27.834Z,90.71
2022-11-24T23:18:01.137Z,90.69
2022-11-24T23:20:32.975Z,90.42
2022-11-24T23:23:04.015Z,90.19
2022-11-24T23:25:36.148Z,90.11
2022-11-24T23:28:06.776Z,90.06
2022-11-24T23:30:38.807Z,90.07
2022-11-24T23:33:09.388Z,90.15
2022-11-24T23:35:40.055Z,90.16
2022-11-24T23:38:10.686Z,90.11
2022-11-24T23:40:41.543Z,90.11
2022-11-24T23:43:12.186Z,90.15
2022-11-24T23:45:42.653Z,90.09
2022-11-24T23:48:13.249Z,89.84
2022-11-24T23:50:43.982Z,89.67
2022-11-24T23:53:14.568Z,89.31
2022-11-24T23:55:45.064Z,89.21
2022-11-24T23:58:15.597Z,89.11
